Time;durP1;ratioP1;P1;durP2;ratioP2;P2;SDS_P1;SDS_P2;PMS_P1;PMS_P2;Temp;Humidity;BMP_temperature;BMP_pressure;BME280_temperature;BME280_humidity;BME280_pressure;Samples;Min_cycle;Max_cycle;Signal;HPM_P1;HPM_P2
2023/03/11 00:01:20;;;;;;;7.50;2.10;;;;;;;9.82;98.30;97469.63;180510;1267;44205;-86
2023/03/11 00:05:26;;;;;;;3.40;1.80;;;;;;;9.79;96.79;97473.23;180274;1267;44261;-87
2023/03/11 00:09:30;;;;;;;0.50;0.40;;;;;;;9.76;95.21;97474.14;180123;1267;43794;-87
2023/03/11 00:13:35;;;;;;;2.40;0.80;;;;;;;9.70;92.99;97476.09;180314;1267;44101;-87
2023/03/11 00:17:39;;;;;;;3.00;0.90;;;;;;;9.53;92.74;97483.11;180246;1267;59771;-88
2023/03/11 00:21:42;;;;;;;1.60;1.20;;;;;;;9.57;95.87;97488.41;180385;1267;44081;-87
2023/03/11 00:25:46;;;;;;;1.90;0.70;;;;;;;9.44;95.28;97494.98;180207;1267;43805;-86
2023/03/11 00:29:50;;;;;;;0.30;0.30;;;;;;;9.27;96.51;97504.41;180332;1267;43769;-88
2023/03/11 00:33:56;;;;;;;1.10;0.60;;;;;;;9.10;97.08;97499.84;180341;1267;44036;-88
2023/03/11 00:38:05;;;;;;;0.40;0.30;;;;;;;8.96;98.18;97503.20;180178;1267;59390;-88
2023/03/11 00:42:09;;;;;;;0.90;0.30;;;;;;;8.85;98.92;97502.63;180335;1267;43948;-88
2023/03/11 00:46:12;;;;;;;0.90;0.20;;;;;;;8.80;99.55;97505.12;180407;1267;44065;-88
2023/03/11 00:50:27;;;;;;;2.00;0.70;;;;;;;8.78;99.97;97507.16;180245;1267;43897;-88
2023/03/11 00:54:31;;;;;;;0.60;0.60;;;;;;;8.76;100.00;97505.10;180254;1267;43953;-88
2023/03/11 00:58:34;;;;;;;1.30;1.00;;;;;;;8.73;100.00;97506.70;180221;1267;60003;-86
2023/03/11 01:02:38;;;;;;;0.80;0.50;;;;;;;8.76;100.00;97506.86;180265;1267;44202;-85
2023/03/11 01:06:42;;;;;;;0.90;0.60;;;;;;;8.70;100.00;97502.34;180194;1267;43800;-85
2023/03/11 01:10:48;;;;;;;0.70;0.40;;;;;;;8.60;99.53;97494.88;180419;1267;44005;-85
2023/03/11 01:14:51;;;;;;;0.60;0.60;;;;;;;8.54;98.54;97490.45;180156;1267;43816;-85
2023/03/11 01:18:55;;;;;;;1.80;0.60;;;;;;;8.47;98.85;97481.06;180459;1267;60194;-85
2023/03/11 01:22:59;;;;;;;0.30;0.30;;;;;;;8.40;99.01;97484.27;180345;1267;43798;-85
2023/03/11 01:27:03;;;;;;;1.40;0.90;;;;;;;8.36;99.31;97486.70;180236;1267;43887;-86
2023/03/11 01:31:09;;;;;;;0.50;0.50;;;;;;;8.28;99.11;97485.28;180489;1267;43847;-86
2023/03/11 01:35:15;;;;;;;0.40;0.40;;;;;;;8.25;98.71;97487.16;180288;1267;43752;-86
2023/03/11 01:39:20;;;;;;;0.20;0.20;;;;;;;8.22;97.27;97483.19;180108;1267;56943;-85
2023/03/11 01:43:44;;;;;;;0.50;0.40;;;;;;;8.17;96.16;97485.18;179928;1267;43783;-88
2023/03/11 01:47:48;;;;;;;0.40;0.40;;;;;;;8.11;95.55;97489.16;180430;1267;44072;-88
2023/03/11 01:52:06;;;;;;;0.50;0.50;;;;;;;8.09;95.71;97487.14;180292;1267;44058;-87
2023/03/11 01:56:10;;;;;;;2.90;0.70;;;;;;;8.04;95.75;97484.26;180162;1267;43719;-87
2023/03/11 02:00:14;;;;;;;0.30;0.20;;;;;;;7.96;95.87;97483.77;180256;1267;58347;-88
2023/03/11 02:04:20;;;;;;;0.80;0.70;;;;;;;7.88;95.61;97473.88;180222;1267;44084;-88
2023/03/11 02:08:23;;;;;;;1.90;0.50;;;;;;;7.86;96.00;97482.67;180125;1267;44113;-88
2023/03/11 02:12:33;;;;;;;0.50;0.40;;;;;;;7.83;95.61;97481.25;180150;1267;43689;-88
2023/03/11 02:16:37;;;;;;;0.40;0.40;;;;;;;7.83;95.23;97481.89;180389;1267;43871;-89
2023/03/11 02:20:51;;;;;;;0.80;0.80;;;;;;;7.77;94.80;97487.33;180208;1267;59617;-89
2023/03/11 02:25:04;;;;;;;2.60;0.20;;;;;;;7.68;94.90;97493.05;180395;1267;43827;-88
2023/03/11 02:29:09;;;;;;;0.20;0.10;;;;;;;7.10;91.51;97522.30;180361;1267;43840;-87
2023/03/11 02:42:45;;;;;;;0.20;0.20;;;;;;;5.49;93.19;97561.09;178225;1266;78645;-74
2023/03/11 02:46:49;;;;;;;0.10;0.10;;;;;;;5.31;91.94;97559.44;180966;1268;43050;-74
2023/03/11 02:50:52;;;;;;;1.10;0.30;;;;;;;5.12;89.84;97558.61;181000;1268;43078;-73
2023/03/11 02:54:55;;;;;;;8.50;0.70;;;;;;;5.02;90.21;97575.40;180859;1267;43796;-77
2023/03/11 02:58:58;;;;;;;0.20;0.10;;;;;;;4.94;90.16;97581.27;180968;1267;43728;-76
2023/03/11 03:03:02;;;;;;;0.90;0.40;;;;;;;4.89;90.31;97589.36;180909;1267;58302;-75
2023/03/11 03:07:05;;;;;;;0.20;0.20;;;;;;;4.77;90.63;97594.45;180901;1267;43194;-75
2023/03/11 03:11:08;;;;;;;0.20;0.20;;;;;;;4.67;89.86;97578.20;180955;1267;43773;-73
2023/03/11 03:15:11;;;;;;;0.70;0.40;;;;;;;4.63;89.96;97590.34;180879;1267;43730;-74
2023/03/11 03:19:17;;;;;;;0.20;0.00;;;;;;;4.55;89.72;97589.58;180992;1268;43084;-76
2023/03/11 03:23:20;;;;;;;1.50;0.50;;;;;;;4.52;90.78;97606.27;180987;1267;58290;-74
2023/03/11 03:27:35;;;;;;;0.40;0.10;;;;;;;4.41;91.00;97605.55;180915;1267;43747;-73
2023/03/11 03:31:38;;;;;;;0.10;0.10;;;;;;;4.32;91.99;97611.81;180950;1268;43072;-74
2023/03/11 03:35:43;;;;;;;0.10;0.10;;;;;;;4.27;93.32;97622.70;180990;1267;43820;-78
2023/03/11 03:39:46;;;;;;;0.10;0.10;;;;;;;4.17;94.42;97636.41;180950;1267;43824;-76
2023/03/11 03:43:49;;;;;;;0.60;0.60;;;;;;;4.06;95.55;97633.81;180883;1267;57316;-74
2023/03/11 03:47:52;;;;;;;0.30;0.20;;;;;;;3.89;95.58;97635.50;180971;1269;43656;-74
2023/03/11 03:52:13;;;;;;;0.20;0.10;;;;;;;3.86;96.10;97652.23;180882;1267;42976;-74
2023/03/11 03:56:17;;;;;;;0.20;0.20;;;;;;;3.79;95.32;97656.95;180973;1267;43395;-74
2023/03/11 04:00:30;;;;;;;0.20;0.20;;;;;;;3.69;95.52;97654.89;180960;1267;43103;-73
2023/03/11 04:04:33;;;;;;;0.20;0.20;;;;;;;3.68;95.13;97651.16;180948;1267;57928;-74
2023/03/11 04:08:36;;;;;;;0.10;0.10;;;;;;;3.65;94.58;97653.30;180914;1267;43632;-73
2023/03/11 04:12:39;;;;;;;0.40;0.30;;;;;;;3.54;94.51;97666.25;180981;1267;43696;-77
2023/03/11 04:16:43;;;;;;;1.00;0.20;;;;;;;3.52;94.87;97657.15;180927;1267;44289;-75
2023/03/11 04:20:46;;;;;;;0.50;0.40;;;;;;;3.47;95.00;97669.19;181019;1267;43638;-76
2023/03/11 04:24:49;;;;;;;0.70;0.40;;;;;;;3.45;94.86;97672.96;180992;1267;58342;-73
2023/03/11 04:28:52;;;;;;;0.40;0.20;;;;;;;3.46;94.44;97672.95;180950;1268;43753;-73
2023/03/11 04:32:57;;;;;;;1.90;0.60;;;;;;;3.49;94.10;97677.42;180969;1269;43758;-74
2023/03/11 04:37:00;;;;;;;0.30;0.30;;;;;;;3.45;93.75;97669.56;181019;1267;43351;-74
2023/03/11 04:46:13;;;;;;;0.50;0.50;;;;;;;3.42;94.27;97695.98;181031;1267;58251;-74
2023/03/11 04:50:17;;;;;;;0.60;0.50;;;;;;;3.33;94.75;97700.00;180939;1267;43177;-74
2023/03/11 04:54:20;;;;;;;0.30;0.30;;;;;;;3.28;96.32;97710.41;180947;1267;43144;-78
2023/03/11 04:58:23;;;;;;;0.40;0.40;;;;;;;3.23;97.42;97704.52;180980;1267;43546;-74
2023/03/11 05:02:29;;;;;;;0.30;0.30;;;;;;;3.07;98.24;97729.98;180732;1270;233177;-74
2023/03/11 05:06:32;;;;;;;0.70;0.70;;;;;;;3.10;98.60;97742.15;180998;1267;57668;-74
2023/03/11 05:10:35;;;;;;;0.20;0.20;;;;;;;3.07;99.30;97741.41;180921;1268;43748;-76
2023/03/11 05:14:39;;;;;;;0.70;0.70;;;;;;;3.03;100.00;97751.04;180928;1267;43001;-74
2023/03/11 05:18:42;;;;;;;0.40;0.40;;;;;;;2.93;100.00;97755.95;180974;1266;43103;-73
2023/03/11 05:22:45;;;;;;;0.30;0.20;;;;;;;2.81;100.00;97771.90;180963;1267;43780;-73
2023/03/11 05:26:49;;;;;;;1.20;0.90;;;;;;;2.62;100.00;97786.53;180920;1267;58291;-73
2023/03/11 05:30:52;;;;;;;1.70;1.00;;;;;;;2.51;100.00;97790.45;180872;1267;43762;-73
2023/03/11 05:34:55;;;;;;;0.90;0.90;;;;;;;2.33;100.00;97808.08;180914;1267;43849;-75
2023/03/11 05:38:58;;;;;;;2.00;0.80;;;;;;;2.31;100.00;97818.29;180929;1269;43791;-74
2023/03/11 05:43:03;;;;;;;1.80;1.10;;;;;;;2.30;100.00;97818.73;180829;1267;43951;-73
2023/03/11 05:47:07;;;;;;;0.90;0.90;;;;;;;2.18;100.00;97837.75;180893;1267;58348;-74
2023/03/11 05:51:11;;;;;;;1.70;1.60;;;;;;;2.08;100.00;97845.11;180873;1267;46948;-75
2023/03/11 05:55:17;;;;;;;2.00;1.30;;;;;;;1.97;100.00;97855.61;180938;1267;43699;-77
2023/03/11 05:59:20;;;;;;;0.90;0.70;;;;;;;1.96;100.00;97863.58;180932;1267;43636;-76
2023/03/11 06:03:25;;;;;;;2.30;1.60;;;;;;;1.91;100.00;97872.70;180906;1267;43271;-74
2023/03/11 06:07:28;;;;;;;1.80;1.30;;;;;;;1.80;100.00;97886.36;180911;1267;58364;-74
2023/03/11 06:11:31;;;;;;;1.90;1.40;;;;;;;1.81;100.00;97911.17;180918;1268;43075;-74
2023/03/11 06:15:35;;;;;;;1.80;1.00;;;;;;;1.78;100.00;97925.54;180952;1267;43085;-75
2023/03/11 06:19:39;;;;;;;3.00;1.40;;;;;;;1.80;100.00;97943.69;180922;1268;43043;-78
2023/03/11 06:23:42;;;;;;;2.20;1.80;;;;;;;1.77;100.00;97960.01;180963;1268;43810;-76
2023/03/11 06:27:52;;;;;;;3.60;2.40;;;;;;;1.77;100.00;97980.34;180930;1268;57931;-75
2023/03/11 06:31:56;;;;;;;4.20;2.40;;;;;;;1.75;100.00;98000.77;180930;1267;43619;-76
2023/03/11 06:36:01;;;;;;;2.90;2.30;;;;;;;1.75;100.00;98003.86;180984;1267;43643;-75
2023/03/11 06:40:09;;;;;;;5.10;4.60;;;;;;;1.77;100.00;98027.69;180975;1267;43697;-73
2023/03/11 06:44:13;;;;;;;3.60;2.70;;;;;;;1.81;100.00;98040.27;180929;1267;43751;-75
2023/03/11 06:48:15;;;;;;;1.70;1.50;;;;;;;1.86;100.00;98051.21;180962;1267;58255;-75
2023/03/11 06:52:19;;;;;;;3.00;2.70;;;;;;;1.89;100.00;98072.19;180996;1267;43084;-77
2023/03/11 06:56:23;;;;;;;4.40;2.80;;;;;;;1.92;100.00;98074.34;180911;1267;43704;-72
2023/03/11 07:00:26;;;;;;;2.40;2.00;;;;;;;1.97;100.00;98099.67;180805;1268;43115;-75
2023/03/11 07:04:31;;;;;;;2.30;2.00;;;;;;;1.96;100.00;98120.89;180894;1268;43042;-74
2023/03/11 07:08:34;;;;;;;3.00;2.20;;;;;;;1.94;100.00;98141.17;180835;1268;58766;-73
2023/03/11 07:12:37;;;;;;;2.90;1.40;;;;;;;1.92;100.00;98152.34;180948;1267;43580;-74
2023/03/11 07:16:40;;;;;;;4.40;3.30;;;;;;;1.89;100.00;98171.82;180925;1267;43116;-73
2023/03/11 07:20:43;;;;;;;2.90;1.70;;;;;;;1.78;100.00;98181.09;180951;1267;43684;-75
2023/03/11 07:24:47;;;;;;;1.40;1.10;;;;;;;1.81;100.00;98198.65;180914;1267;43107;-77
2023/03/11 07:28:52;;;;;;;1.20;1.10;;;;;;;1.74;100.00;98217.74;180918;1267;57909;-76
2023/03/11 07:32:55;;;;;;;1.20;0.70;;;;;;;1.73;100.00;98229.88;180944;1268;43693;-75
2023/03/11 07:36:58;;;;;;;0.80;0.80;;;;;;;1.67;100.00;98250.58;181043;1267;43666;-78
2023/03/11 07:41:01;;;;;;;2.20;1.90;;;;;;;1.55;100.00;98263.20;180977;1267;43447;-79
2023/03/11 07:45:05;;;;;;;1.60;1.20;;;;;;;1.58;100.00;98278.37;180981;1267;43021;-74
2023/03/11 07:49:34;;;;;;;2.00;1.40;;;;;;;1.56;100.00;98301.38;180963;1267;58148;-73
2023/03/11 07:53:39;;;;;;;1.30;1.20;;;;;;;1.57;100.00;98303.92;180989;1267;43133;-79
2023/03/11 07:57:46;;;;;;;1.70;1.30;;;;;;;1.60;100.00;98327.66;181048;1267;43767;-75
2023/03/11 08:01:49;;;;;;;1.20;0.80;;;;;;;1.62;100.00;98352.16;180977;1267;43685;-73
2023/03/11 08:05:52;;;;;;;0.90;0.70;;;;;;;1.58;100.00;98352.92;180988;1267;43744;-75
2023/03/11 08:09:55;;;;;;;2.20;1.10;;;;;;;1.72;100.00;98379.48;180944;1267;57934;-79
2023/03/11 08:14:25;;;;;;;1.90;1.40;;;;;;;1.82;100.00;98390.52;180920;1264;43565;31
2023/03/11 08:18:53;;;;;;;0.80;0.60;;;;;;;1.88;100.00;98401.91;142793;1273;43771;-75
2023/03/11 08:44:10;;;;;;;0.30;0.30;;;;;;;2.04;100.00;98500.00;180887;1267;43674;-75
2023/03/11 08:48:13;;;;;;;3.10;1.80;;;;;;;2.08;100.00;98505.50;180872;1268;43692;-75
2023/03/11 08:52:16;;;;;;;2.00;1.50;;;;;;;2.06;100.00;98514.17;180947;1267;43387;-76
2023/03/11 09:01:22;;;;;;;1.90;1.00;;;;;;;2.15;100.00;98547.44;180941;1268;42985;-76
2023/03/11 09:05:25;;;;;;;1.30;1.20;;;;;;;2.04;100.00;98562.08;180947;1268;43711;-75
2023/03/11 09:09:30;;;;;;;1.40;1.10;;;;;;;1.83;100.00;98579.91;180968;1268;43094;-74
2023/03/11 09:13:34;;;;;;;3.30;1.50;;;;;;;1.80;100.00;98583.77;180993;1268;43748;-74
2023/03/11 09:17:37;;;;;;;1.70;1.50;;;;;;;1.92;100.00;98596.88;180833;1270;57968;-72
2023/03/11 09:21:40;;;;;;;3.10;2.30;;;;;;;2.01;100.00;98599.02;180920;1267;43501;-72
2023/03/11 09:26:48;;;;;;;3.00;1.70;;;;;;;2.20;100.00;98614.76;180868;1270;43134;-72
2023/03/11 09:30:51;;;;;;;3.60;3.00;;;;;;;2.37;100.00;98627.20;180866;1268;43788;-71
2023/03/11 09:34:54;;;;;;;3.50;2.20;;;;;;;2.38;100.00;98640.94;180953;1267;42991;-72
2023/03/11 09:38:57;;;;;;;3.50;3.20;;;;;;;2.45;100.00;98647.27;180995;1267;58377;-71
2023/03/11 09:43:14;;;;;;;3.50;1.70;;;;;;;2.40;100.00;98664.05;180997;1267;43758;-73
2023/03/11 09:47:35;;;;;;;3.70;3.30;;;;;;;2.54;99.58;98675.95;181056;1267;43735;-71
2023/03/11 09:51:45;;;;;;;2.20;1.30;;;;;;;2.64;99.38;98692.21;181033;1267;43425;-72
2023/03/11 09:55:52;;;;;;;5.20;2.40;;;;;;;2.68;96.61;98703.30;181038;1267;43047;-70
2023/03/11 09:59:55;;;;;;;3.50;1.90;;;;;;;2.76;96.18;98705.70;180976;1266;56998;-70
2023/03/11 10:04:05;;;;;;;3.80;2.60;;;;;;;2.73;96.30;98716.55;181064;1268;43916;-71
2023/03/11 10:08:29;;;;;;;3.00;2.20;;;;;;;2.75;98.44;98723.44;181092;1265;43909;-72
2023/03/11 10:12:43;;;;;;;3.10;2.80;;;;;;;2.86;98.12;98721.23;181137;1265;43659;-70
2023/03/11 10:17:24;;;;;;;6.20;2.70;;;;;;;2.95;96.99;98743.83;181039;1267;43665;-72
2023/03/11 10:21:51;;;;;;;3.30;2.90;;;;;;;2.97;94.39;98751.43;181079;1267;58325;-76
2023/03/11 10:31:21;;;;;;;7.20;3.20;;;;;;;3.33;93.33;98768.73;180984;1267;81508;-73
2023/03/11 10:35:37;;;;;;;2.20;1.90;;;;;;;3.51;89.29;98773.52;181013;1267;43648;-71
2023/03/11 10:39:41;;;;;;;;;;;;;;;3.53;89.45;98782.98;181025;1267;43332;-74
2023/03/11 10:43:59;;;;;;;2.80;1.90;;;;;;;3.52;88.18;98784.61;180975;1267;57693;-71
2023/03/11 10:48:08;;;;;;;5.70;2.20;;;;;;;3.56;88.96;98791.47;180993;1267;43108;-73
2023/03/11 10:52:21;;;;;;;3.10;2.70;;;;;;;3.56;87.79;98804.64;180927;1267;43496;-74
2023/03/11 10:56:42;;;;;;;4.20;2.20;;;;;;;3.77;87.10;98821.66;180960;1267;43117;-71
2023/03/11 11:01:02;;;;;;;5.00;2.40;;;;;;;4.00;85.63;98822.32;181003;1267;43250;-72
2023/03/11 11:05:19;;;;;;;3.20;2.20;;;;;;;3.98;82.16;98828.44;180883;1269;58336;-71
2023/03/11 11:09:23;;;;;;;8.30;3.20;;;;;;;4.08;81.78;98824.57;180943;1267;44053;-72
2023/03/11 11:13:30;;;;;;;;;;;;;;;4.31;82.22;98833.08;181023;1267;43710;-73
2023/03/11 11:17:33;;;;;;;2.70;2.30;;;;;;;4.49;81.04;98840.81;181005;1267;43459;-73
2023/03/11 11:21:42;;;;;;;2.90;2.10;;;;;;;4.32;80.37;98847.38;180982;1267;42971;-73
2023/03/11 11:25:57;;;;;;;3.90;2.90;;;;;;;4.10;81.38;98849.50;180854;1268;58227;-74
2023/03/11 11:30:15;;;;;;;3.30;2.50;;;;;;;3.90;83.78;98856.77;180901;1267;43310;-74
2023/03/11 11:34:34;;;;;;;4.10;2.80;;;;;;;3.86;88.65;98860.09;180967;1267;43637;-74
2023/03/11 11:38:46;;;;;;;2.40;2.00;;;;;;;3.89;91.20;98867.38;180980;1268;43815;-74
2023/03/11 11:43:16;;;;;;;6.70;2.30;;;;;;;3.88;91.79;98870.11;180950;1267;43792;-74
2023/03/11 11:47:32;;;;;;;3.70;1.80;;;;;;;3.87;89.89;98868.95;180941;1267;57898;-72
2023/03/11 11:51:47;;;;;;;2.10;1.60;;;;;;;3.87;87.52;98867.52;180933;1268;43130;-74
2023/03/11 11:55:52;;;;;;;5.40;3.40;;;;;;;3.77;86.58;98869.69;180424;1267;77367;-85
2023/03/11 11:59:56;;;;;;;4.30;3.40;;;;;;;3.71;88.14;98886.81;180358;1267;43915;-85
2023/03/11 12:04:03;;;;;;;12.90;11.50;;;;;;;3.30;95.50;98892.45;180195;1267;43905;-85
2023/03/11 12:08:33;;;;;;;10.80;7.00;;;;;;;2.60;100.00;98915.29;180504;1266;58358;-85
2023/03/11 12:13:14;;;;;;;4.30;3.50;;;;;;;2.08;100.00;98925.55;179482;1272;44196;-85
2023/03/11 12:17:22;;;;;;;4.10;2.70;;;;;;;1.96;100.00;98932.63;179424;1272;43959;-84
2023/03/11 12:21:38;;;;;;;14.60;7.90;;;;;;;2.09;100.00;98941.59;179322;1273;44053;-85
2023/03/11 12:26:11;;;;;;;10.70;7.40;;;;;;;2.40;100.00;98943.46;179373;1273;44274;-85
2023/03/11 12:30:26;;;;;;;4.40;3.20;;;;;;;2.82;94.32;98937.78;179284;1272;59653;-85
2023/03/11 12:34:33;;;;;;;2.70;2.30;;;;;;;3.12;93.89;98946.33;179183;1273;44423;-85
2023/03/11 12:38:45;;;;;;;2.80;1.80;;;;;;;3.35;91.80;98944.30;179387;1273;43963;-85
2023/03/11 12:42:48;;;;;;;4.60;2.70;;;;;;;3.31;88.45;98960.23;178906;1273;44339;-85
2023/03/11 12:46:52;;;;;;;4.90;2.50;;;;;;;3.11;89.18;98988.46;179371;1273;44473;-84
2023/03/11 12:50:56;;;;;;;2.10;1.70;;;;;;;3.06;91.61;98988.94;180427;1266;58239;-85
2023/03/11 12:55:03;;;;;;;2.70;2.20;;;;;;;2.95;88.90;98999.88;180080;1268;44152;-85
2023/03/11 12:59:25;;;;;;;4.60;2.50;;;;;;;2.92;88.94;99007.13;180377;1267;43862;-86
2023/03/11 13:03:31;;;;;;;5.70;2.20;;;;;;;3.02;88.63;99016.04;180464;1266;44333;-86
2023/03/11 13:07:40;;;;;;;3.80;1.90;;;;;;;2.93;89.87;99029.67;180482;1266;43911;-86
2023/03/11 13:11:46;;;;;;;2.40;2.10;;;;;;;2.50;88.82;99041.16;180258;1267;58255;-86
2023/03/11 13:15:51;;;;;;;;;;;;;;;2.34;89.92;99057.63;180110;1266;43934;-87
2023/03/11 13:19:58;;;;;;;3.60;2.20;;;;;;;2.32;89.27;99060.91;180201;1266;43620;-85
2023/03/11 13:24:20;;;;;;;7.30;3.00;;;;;;;2.33;89.16;99062.02;180245;1265;44015;-85
2023/03/11 13:28:51;;;;;;;4.40;2.50;;;;;;;2.38;89.16;99074.13;180418;1267;43923;-85
2023/03/11 13:33:25;;;;;;;4.60;2.20;;;;;;;2.56;88.95;99089.94;180304;1267;57924;-86
2023/03/11 13:38:07;;;;;;;3.00;2.30;;;;;;;2.85;88.95;99084.64;180203;1266;43802;-87
2023/03/11 13:42:28;;;;;;;3.70;2.40;;;;;;;2.89;88.44;99098.34;180248;1267;43878;-87
2023/03/11 13:46:40;;;;;;;7.30;4.70;;;;;;;2.74;88.36;99105.53;180179;1265;43791;-87
2023/03/11 13:50:55;;;;;;;4.90;3.40;;;;;;;2.74;88.49;99122.86;180239;1267;43854;-87
2023/03/11 13:55:16;;;;;;;5.00;3.00;;;;;;;2.76;88.48;99128.00;180158;1267;58088;-87
2023/03/11 13:59:27;;;;;;;8.20;5.70;;;;;;;2.70;87.72;99130.45;180242;1266;43819;-89
2023/03/11 14:03:42;;;;;;;6.60;3.90;;;;;;;2.65;88.10;99145.51;180038;1265;44104;-87
2023/03/11 14:08:18;;;;;;;4.60;3.30;;;;;;;2.35;93.38;99157.30;179998;1267;43902;-87
2023/03/11 14:12:25;;;;;;;3.90;2.50;;;;;;;2.07;97.58;99162.08;180431;1268;43776;-87
2023/03/11 14:16:42;;;;;;;5.00;2.60;;;;;;;2.14;95.25;99166.36;179986;1267;61029;-87
2023/03/11 14:20:48;;;;;;;4.50;3.20;;;;;;;2.36;94.50;99168.73;179963;1266;43993;-87
2023/03/11 14:24:52;;;;;;;5.00;3.80;;;;;;;2.64;92.59;99170.95;180228;1267;43960;-88
2023/03/11 14:28:59;;;;;;;3.70;2.60;;;;;;;2.68;87.79;99178.39;180234;1266;44172;-87
2023/03/11 14:33:20;;;;;;;3.80;2.50;;;;;;;2.68;87.06;99176.64;180104;1265;43736;-88
2023/03/11 14:37:33;;;;;;;4.90;2.60;;;;;;;2.70;85.34;99183.52;180391;1267;58575;-86
2023/03/11 14:41:37;;;;;;;4.70;3.00;;;;;;;2.69;84.44;99192.67;180137;1266;43855;-87
2023/03/11 14:45:42;;;;;;;8.90;2.80;;;;;;;2.67;82.70;99203.32;180378;1267;43901;-87
2023/03/11 14:49:49;;;;;;;3.70;2.30;;;;;;;2.68;82.85;99203.42;180196;1268;44184;-87
2023/03/11 14:54:02;;;;;;;2.90;2.10;;;;;;;2.74;82.30;99206.73;180050;1267;43936;-87
2023/03/11 14:58:14;;;;;;;5.00;2.40;;;;;;;2.87;81.75;99212.16;180402;1267;60363;-85
2023/03/11 15:02:37;;;;;;;5.10;3.70;;;;;;;3.00;82.91;99218.31;180405;1268;43977;-87
2023/03/11 15:06:45;;;;;;;2.90;1.90;;;;;;;3.11;82.12;99227.39;180426;1266;44120;-86
2023/03/11 15:11:05;;;;;;;8.70;6.20;;;;;;;3.12;82.22;99229.75;180200;1266;44142;-86
2023/03/11 15:15:28;;;;;;;4.70;3.40;;;;;;;3.13;79.59;99231.45;180427;1267;44240;-88
2023/03/11 15:19:33;;;;;;;4.60;2.80;;;;;;;3.11;79.30;99240.14;180202;1266;59420;-85
2023/03/11 15:23:37;;;;;;;2.90;2.30;;;;;;;3.10;79.71;99248.63;180175;1265;43864;-85
2023/03/11 15:27:41;;;;;;;1.80;1.60;;;;;;;3.10;79.52;99249.20;180110;1268;43904;-85
2023/03/11 15:31:46;;;;;;;6.10;1.60;;;;;;;3.04;79.63;99252.37;180372;1267;44262;-84
2023/03/11 15:35:50;;;;;;;6.20;2.50;;;;;;;3.03;80.02;99257.88;180048;1266;44013;-84
2023/03/11 15:39:57;;;;;;;2.80;2.50;;;;;;;2.98;80.86;99267.67;180100;1267;58313;-84
2023/03/11 15:44:02;;;;;;;16.60;7.90;;;;;;;2.90;80.78;99273.98;180016;1266;43819;-84
2023/03/11 15:48:09;;;;;;;9.20;5.80;;;;;;;2.93;81.48;99276.58;180260;1267;43812;-84
2023/03/11 15:52:14;;;;;;;6.50;3.00;;;;;;;2.89;80.67;99282.41;180206;1270;44518;-84
2023/03/11 15:56:23;;;;;;;3.70;2.70;;;;;;;2.88;81.13;99287.55;180287;1267;55670;-85
2023/03/11 16:00:26;;;;;;;5.40;3.70;;;;;;;2.90;81.29;99294.80;180296;1267;59321;-85
2023/03/11 16:04:31;;;;;;;3.10;2.60;;;;;;;2.97;82.92;99300.63;180096;1267;44589;-84
2023/03/11 16:08:38;;;;;;;10.70;4.80;;;;;;;3.04;83.75;99311.55;180400;1270;43888;-84
2023/03/11 16:12:45;;;;;;;4.50;3.90;;;;;;;2.91;85.81;99317.46;179828;1270;43882;-85
2023/03/11 16:16:49;;;;;;;5.80;4.80;;;;;;;2.77;89.45;99315.41;180182;1267;44176;-85
2023/03/11 16:20:54;;;;;;;6.20;4.80;;;;;;;2.56;93.01;99323.74;180262;1268;58323;-84
2023/03/11 16:24:59;;;;;;;6.50;3.00;;;;;;;2.52;93.06;99335.05;180365;1266;44220;-84
2023/03/11 16:29:02;;;;;;;4.90;4.00;;;;;;;2.57;91.68;99342.28;180286;1267;44245;-84
2023/03/11 16:33:21;;;;;;;6.20;4.40;;;;;;;2.54;92.22;99346.30;180079;1265;44887;-83
2023/03/11 16:37:24;;;;;;;10.80;5.40;;;;;;;2.51;92.87;99354.33;179926;1267;44014;-84
2023/03/11 16:41:38;;;;;;;8.70;7.70;;;;;;;2.44;91.69;99369.68;180376;1267;58273;-83
2023/03/11 16:45:42;;;;;;;23.70;15.90;;;;;;;2.37;90.79;99372.89;180131;1268;44165;-84
2023/03/11 16:49:49;;;;;;;32.10;16.80;;;;;;;2.31;88.09;99392.87;180300;1266;43847;-84
2023/03/11 16:53:52;;;;;;;25.20;11.00;;;;;;;2.22;91.14;99404.80;180097;1271;43944;-83
2023/03/11 16:57:56;;;;;;;12.20;3.90;;;;;;;1.87;99.77;99413.89;180247;1266;43903;-84
2023/03/11 17:02:01;;;;;;;19.70;10.60;;;;;;;1.69;100.00;99422.27;179909;1267;315496;-84
2023/03/11 17:06:05;;;;;;;11.70;5.80;;;;;;;1.64;100.00;99432.89;180203;1267;43863;-83
2023/03/11 17:10:10;;;;;;;9.90;4.90;;;;;;;1.59;100.00;99438.04;180171;1268;43866;-84
2023/03/11 17:14:14;;;;;;;16.40;5.40;;;;;;;1.60;100.00;99449.73;180237;1267;43759;-84
2023/03/11 17:18:19;;;;;;;4.30;3.50;;;;;;;1.50;100.00;99449.75;180225;1267;44099;-83
2023/03/11 17:22:22;;;;;;;6.20;4.20;;;;;;;1.38;100.00;99460.55;180196;1267;59590;-83
2023/03/11 17:26:26;;;;;;;4.80;4.00;;;;;;;1.38;100.00;99468.41;180137;1266;43858;-84
2023/03/11 17:30:30;;;;;;;5.50;3.00;;;;;;;1.32;100.00;99475.09;180039;1267;52859;-83
2023/03/11 17:34:39;;;;;;;7.60;4.00;;;;;;;1.26;100.00;99486.56;180325;1266;45943;-83
2023/03/11 17:38:46;;;;;;;7.10;4.50;;;;;;;1.26;100.00;99486.05;180267;1267;44086;-83
2023/03/11 17:42:49;;;;;;;9.80;7.00;;;;;;;1.21;100.00;99493.11;180103;1268;59444;-83
2023/03/11 17:46:53;;;;;;;14.90;10.40;;;;;;;1.31;100.00;99500.27;180299;1268;43863;-84
2023/03/11 17:50:56;;;;;;;16.00;9.20;;;;;;;1.44;100.00;99497.27;180454;1267;43835;-83
2023/03/11 17:55:00;;;;;;;13.00;7.80;;;;;;;1.46;100.00;99503.98;180675;1266;43728;-83
2023/03/11 17:59:03;;;;;;;12.30;8.00;;;;;;;1.47;99.44;99512.82;180249;1267;44148;-83
2023/03/11 18:03:07;;;;;;;9.90;7.10;;;;;;;1.46;98.88;99522.30;180215;1267;58126;-83
2023/03/11 18:07:11;;;;;;;24.70;12.30;;;;;;;1.46;99.12;99519.20;180325;1271;43817;-83
2023/03/11 18:11:18;;;;;;;19.80;11.80;;;;;;;1.40;99.49;99524.58;180349;1270;43825;-83
2023/03/11 18:15:23;;;;;;;11.20;7.40;;;;;;;1.34;100.00;99536.76;180302;1267;43929;-83
2023/03/11 18:19:26;;;;;;;13.20;7.40;;;;;;;1.25;100.00;99544.09;180185;1266;43746;-83
2023/03/11 18:23:33;;;;;;;9.60;7.20;;;;;;;1.14;100.00;99547.33;180300;1267;59588;-83
2023/03/11 18:27:37;;;;;;;7.40;6.40;;;;;;;1.11;100.00;99554.45;180197;1268;44211;-84
2023/03/11 18:31:40;;;;;;;12.70;7.80;;;;;;;1.04;100.00;99553.29;180394;1267;43849;-84
2023/03/11 18:35:44;;;;;;;19.20;8.80;;;;;;;0.97;100.00;99558.86;180195;1267;43921;-83
2023/03/11 18:39:48;;;;;;;8.80;7.10;;;;;;;0.98;100.00;99563.55;180244;1266;43874;-83
2023/03/11 18:43:56;;;;;;;8.40;6.00;;;;;;;0.90;100.00;99571.98;180262;1267;58122;-83
2023/03/11 18:48:00;;;;;;;8.50;5.20;;;;;;;0.84;100.00;99573.36;180234;1267;44358;-83
2023/03/11 18:52:03;;;;;;;10.60;6.30;;;;;;;0.81;99.83;99579.92;180518;1267;43887;-84
2023/03/11 18:56:10;;;;;;;8.40;6.00;;;;;;;0.84;99.17;99578.58;180396;1268;43998;-83
2023/03/11 19:00:19;;;;;;;10.00;6.10;;;;;;;0.76;98.85;99587.56;180429;1267;43747;-83
2023/03/11 19:04:23;;;;;;;14.10;7.70;;;;;;;0.73;98.66;99594.17;180392;1267;59334;-83
2023/03/11 19:08:27;;;;;;;14.00;7.00;;;;;;;0.73;98.27;99599.20;180085;1267;48043;-83
2023/03/11 19:12:32;;;;;;;13.30;6.90;;;;;;;0.73;98.53;99605.86;180294;1267;43805;-83
2023/03/11 19:16:36;;;;;;;12.10;9.80;;;;;;;0.66;97.54;99603.78;180309;1267;43811;-83
2023/03/11 19:20:39;;;;;;;10.60;8.20;;;;;;;0.70;96.83;99602.33;180315;1267;43805;-83
2023/03/11 19:24:42;;;;;;;15.00;9.20;;;;;;;0.64;96.33;99606.13;180332;1267;59832;-83
2023/03/11 19:28:46;;;;;;;11.30;6.90;;;;;;;0.65;95.62;99604.66;180411;1270;44040;-83
2023/03/11 19:32:51;;;;;;;19.60;9.00;;;;;;;0.67;95.26;99614.88;180477;1267;43861;-83
2023/03/11 19:36:55;;;;;;;13.80;10.30;;;;;;;0.69;95.02;99621.05;180060;1267;43754;-83
2023/03/11 19:41:04;;;;;;;14.70;8.90;;;;;;;0.73;95.12;99625.95;180348;1267;44419;-83
2023/03/11 19:45:09;;;;;;;8.50;6.50;;;;;;;0.64;94.95;99633.33;180283;1267;58574;-83
2023/03/11 19:49:13;;;;;;;12.70;7.70;;;;;;;0.65;95.95;99630.52;180200;1267;43768;-83
2023/03/11 19:53:17;;;;;;;11.40;7.40;;;;;;;0.59;96.62;99639.55;180207;1267;43820;-83
2023/03/11 19:57:20;;;;;;;12.00;8.70;;;;;;;0.55;96.75;99645.34;180245;1267;44085;-83
2023/03/11 20:01:27;;;;;;;13.20;8.70;;;;;;;0.55;97.05;99643.25;180311;1267;44024;-83
2023/03/11 20:05:30;;;;;;;11.60;8.90;;;;;;;0.52;97.50;99647.04;180230;1267;58315;-83